Time;durP1;ratioP1;P1;durP2;ratioP2;P2;SDS_P1;SDS_P2;PMS_P1;PMS_P2;Temp;Humidity;BMP_temperature;BMP_pressure;BME280_temperature;BME280_humidity;BME280_pressure;Samples;Min_cycle;Max_cycle;Signal;HPM_P1;HPM_P2
2021/07/15 00:00:54;;;;;;;9.98;6.60;;;15.50;99.90;;;;;;5055442;28;20041;-72
2021/07/15 00:03:24;;;;;;;13.77;7.00;;;15.50;99.90;;;;;;5055663;28;20025;-72
2021/07/15 00:05:51;;;;;;;8.23;5.63;;;15.60;99.90;;;;;;5055578;28;20154;-72
2021/07/15 00:08:19;;;;;;;12.07;6.40;;;15.50;99.90;;;;;;5055831;28;20107;-72
2021/07/15 00:10:53;;;;;;;36.60;6.68;;;15.50;99.90;;;;;;5055205;28;20032;-72
2021/07/15 00:13:19;;;;;;;11.77;6.40;;;15.50;99.90;;;;;;5055158;28;20024;-72
2021/07/15 00:15:48;;;;;;;13.18;5.45;;;15.50;99.90;;;;;;5055617;28;20029;-72
2021/07/15 00:18:16;;;;;;;14.73;6.47;;;15.50;99.90;;;;;;5055612;28;20459;-72
2021/07/15 00:20:45;;;;;;;17.00;6.68;;;15.50;99.90;;;;;;5055471;28;20029;-72
2021/07/15 00:23:11;;;;;;;12.98;6.50;;;15.50;99.90;;;;;;5055251;28;20508;-72
2021/07/15 00:25:38;;;;;;;14.15;7.20;;;15.50;99.90;;;;;;5055479;28;20029;-72
2021/07/15 00:28:04;;;;;;;12.07;7.25;;;15.50;99.90;;;;;;5037038;28;20406;-72
2021/07/15 00:30:30;;;;;;;19.42;7.22;;;15.60;99.90;;;;;;5055131;28;20079;-72
2021/07/15 00:32:56;;;;;;;16.45;7.57;;;15.60;99.90;;;;;;5055297;28;20032;-72
2021/07/15 00:35:21;;;;;;;15.90;7.03;;;15.60;99.90;;;;;;5055267;28;20037;-72
2021/07/15 00:37:47;;;;;;;12.65;6.97;;;15.60;99.90;;;;;;5055218;28;20056;-72
2021/07/15 00:40:15;;;;;;;10.48;7.30;;;15.60;99.90;;;;;;5053368;28;20025;-72
2021/07/15 00:42:42;;;;;;;17.85;7.75;;;15.60;99.90;;;;;;5053286;28;20029;-72
2021/07/15 00:45:09;;;;;;;9.93;6.72;;;15.60;99.90;;;;;;5054284;28;20478;-72
2021/07/15 00:47:35;;;;;;;13.25;7.07;;;15.60;99.90;;;;;;5055106;28;20017;-72
2021/07/15 00:50:03;;;;;;;16.70;7.00;;;15.60;99.90;;;;;;5054980;28;20539;-72
2021/07/15 00:52:28;;;;;;;15.00;6.90;;;15.60;99.90;;;;;;5054708;28;20137;-72
2021/07/15 00:54:55;;;;;;;14.32;6.80;;;15.60;99.90;;;;;;5054911;28;20223;-72
2021/07/15 00:57:20;;;;;;;8.65;6.22;;;15.60;99.90;;;;;;5054584;28;20036;-72
2021/07/15 00:59:47;;;;;;;13.65;7.40;;;15.60;99.90;;;;;;5053302;28;20478;-72
2021/07/15 01:02:13;;;;;;;12.88;7.18;;;15.60;99.90;;;;;;5054001;28;20402;-72
2021/07/15 01:04:38;;;;;;;14.00;7.13;;;15.60;99.90;;;;;;5054470;28;20025;-72
2021/07/15 01:07:04;;;;;;;12.77;7.10;;;15.60;99.90;;;;;;5054678;28;20032;-72
2021/07/15 01:09:31;;;;;;;16.83;7.53;;;15.60;99.90;;;;;;5053513;28;20425;-72
2021/07/15 01:12:11;;;;;;;11.98;7.18;;;15.60;99.90;;;;;;5053648;28;20021;-72
2021/07/15 01:14:47;;;;;;;10.98;6.72;;;15.60;99.90;;;;;;5054532;28;20029;-72
2021/07/15 01:17:19;;;;;;;15.25;6.97;;;15.60;99.90;;;;;;5053042;28;20533;-73
2021/07/15 01:20:25;;;;;;;13.57;7.00;;;15.60;99.90;;;;;;5054196;28;20060;-72
2021/07/15 01:23:22;;;;;;;10.90;6.43;;;15.60;99.90;;;;;;5053762;28;20036;-72
2021/07/15 01:26:02;;;;;;;10.68;7.13;;;15.60;99.90;;;;;;5053748;28;20051;-72
2021/07/15 01:28:46;;;;;;;12.45;7.50;;;15.60;99.90;;;;;;5053808;28;20048;-72
2021/07/15 01:31:13;;;;;;;10.02;7.03;;;15.60;99.90;;;;;;5054058;28;20036;-72
2021/07/15 01:33:40;;;;;;;9.35;7.18;;;15.50;99.90;;;;;;5054294;28;20021;-72
2021/07/15 01:36:10;;;;;;;15.00;7.57;;;15.50;99.90;;;;;;5052697;28;20060;-72
2021/07/15 01:39:01;;;;;;;21.30;8.13;;;15.50;99.90;;;;;;5052390;28;20025;-72
2021/07/15 01:41:32;;;;;;;14.77;7.97;;;15.50;99.90;;;;;;5053755;28;20439;-72
2021/07/15 01:44:09;;;;;;;14.18;7.72;;;15.40;99.90;;;;;;5054120;28;20024;-72
2021/07/15 01:46:35;;;;;;;19.85;7.88;;;15.30;99.90;;;;;;5052596;28;20032;-72
2021/07/15 01:49:03;;;;;;;17.40;7.30;;;15.30;99.90;;;;;;5053782;28;20194;-72
2021/07/15 01:51:29;;;;;;;20.52;8.35;;;15.20;99.90;;;;;;5054006;28;20044;-72
2021/07/15 01:53:56;;;;;;;15.57;7.53;;;15.20;99.90;;;;;;5053685;28;20462;-72
2021/07/15 01:56:22;;;;;;;15.20;7.30;;;15.20;99.90;;;;;;5053791;28;20021;-72
2021/07/15 01:58:51;;;;;;;12.98;7.22;;;15.20;99.90;;;;;;5053653;28;20040;-72
2021/07/15 02:01:18;;;;;;;10.30;6.65;;;15.20;99.90;;;;;;5051837;28;20045;-72
2021/07/15 02:03:48;;;;;;;10.20;6.90;;;15.10;99.90;;;;;;5053582;28;20028;-72
2021/07/15 02:06:15;;;;;;;13.55;6.90;;;15.10;99.90;;;;;;5053862;28;20411;-72
2021/07/15 02:08:43;;;;;;;14.82;6.90;;;15.00;99.90;;;;;;5053828;28;20100;-72
2021/07/15 02:11:11;;;;;;;13.82;7.03;;;15.00;99.90;;;;;;5053772;28;20028;-72
2021/07/15 02:13:37;;;;;;;14.23;7.38;;;14.90;99.90;;;;;;5051956;28;20478;-72
2021/07/15 02:16:06;;;;;;;13.70;7.00;;;14.90;99.90;;;;;;5053733;28;20039;-72
2021/07/15 02:18:32;;;;;;;13.98;7.30;;;14.80;99.90;;;;;;5053729;28;20060;-72
2021/07/15 02:21:00;;;;;;;11.68;6.90;;;14.80;99.90;;;;;;5053122;28;20119;-72
2021/07/15 02:23:28;;;;;;;16.15;7.80;;;14.70;99.90;;;;;;5053660;28;20100;-72
2021/07/15 02:25:56;;;;;;;15.73;6.90;;;14.80;99.90;;;;;;5053620;28;20021;-72
2021/07/15 02:28:26;;;;;;;17.63;8.05;;;14.70;99.90;;;;;;5053092;28;20025;-72
2021/07/15 02:30:56;;;;;;;18.08;8.07;;;14.70;99.90;;;;;;5052067;28;20029;-72
2021/07/15 02:33:26;;;;;;;14.82;7.43;;;14.70;99.90;;;;;;5053337;28;20374;-72
2021/07/15 02:35:55;;;;;;;15.20;8.55;;;14.70;99.90;;;;;;5053287;28;20031;-72
2021/07/15 02:38:23;;;;;;;14.57;7.32;;;14.70;99.90;;;;;;5053576;28;20378;-72
2021/07/15 02:40:50;;;;;;;12.63;7.93;;;14.70;99.90;;;;;;5053439;28;20024;-72
2021/07/15 02:43:16;;;;;;;16.27;8.70;;;14.80;99.90;;;;;;5052061;28;20104;-72
2021/07/15 02:45:41;;;;;;;17.08;8.35;;;14.80;99.90;;;;;;5052002;28;20608;-72
2021/07/15 02:48:07;;;;;;;18.90;8.13;;;14.80;99.90;;;;;;5052910;28;20037;-72
2021/07/15 02:50:32;;;;;;;12.52;7.80;;;14.90;99.90;;;;;;5053108;28;20021;-72
2021/07/15 02:52:59;;;;;;;13.35;8.60;;;15.00;99.90;;;;;;5053472;28;20021;-72
2021/07/15 02:55:26;;;;;;;14.23;7.90;;;15.00;99.90;;;;;;5053351;28;20108;-72
2021/07/15 02:58:14;;;;;;;16.27;8.07;;;15.10;99.90;;;;;;5051537;28;20437;-72
2021/07/15 03:00:46;;;;;;;20.02;8.48;;;15.10;99.90;;;;;;5052605;28;20045;-72
2021/07/15 03:03:51;;;;;;;14.95;8.65;;;15.10;99.90;;;;;;5053372;28;20029;-72
2021/07/15 03:06:40;;;;;;;13.73;7.85;;;15.10;99.90;;;;;;5052690;28;20100;-72
2021/07/15 03:09:23;;;;;;;18.27;8.25;;;15.20;99.90;;;;;;5054991;28;20028;-72
2021/07/15 03:11:50;;;;;;;;;;;15.10;99.90;;;;;;5055866;28;20090;-72
2021/07/15 03:14:17;;;;;;;12.68;8.10;;;15.20;99.90;;;;;;5056564;28;19958;-72
2021/07/15 03:16:45;;;;;;;17.73;9.55;;;15.10;99.90;;;;;;5056777;28;20044;-72
2021/07/15 03:19:13;;;;;;;17.83;8.32;;;15.10;99.90;;;;;;5056194;28;20033;-72
2021/07/15 03:21:42;;;;;;;14.27;7.68;;;15.10;99.90;;;;;;5056617;28;20025;-72
2021/07/15 03:24:11;;;;;;;18.63;8.82;;;15.20;99.90;;;;;;5056721;28;20033;-72
2021/07/15 03:26:38;;;;;;;18.30;8.13;;;15.20;99.90;;;;;;5056605;28;20481;-72
2021/07/15 03:29:05;;;;;;;16.23;8.82;;;15.20;99.90;;;;;;5055053;28;20042;-72
2021/07/15 03:31:33;;;;;;;17.73;7.70;;;15.20;99.90;;;;;;5056496;28;20028;-72
2021/07/15 03:33:59;;;;;;;16.30;7.72;;;15.30;99.90;;;;;;5056203;28;20108;-72
2021/07/15 03:36:25;;;;;;;17.67;7.57;;;15.40;99.90;;;;;;5055929;28;20021;-72
2021/07/15 03:38:51;;;;;;;9.32;6.38;;;15.40;99.90;;;;;;5056092;28;20032;-72
2021/07/15 03:41:17;;;;;;;13.27;7.25;;;15.40;99.90;;;;;;5056258;28;20029;-72
2021/07/15 03:43:44;;;;;;;14.82;6.88;;;15.40;99.90;;;;;;5056272;28;20032;-72
2021/07/15 03:46:11;;;;;;;16.05;7.00;;;15.50;99.90;;;;;;5056235;28;20024;-72
2021/07/15 03:48:38;;;;;;;12.88;7.05;;;15.50;99.90;;;;;;5056199;28;20021;-72
2021/07/15 03:51:07;;;;;;;12.10;6.32;;;15.50;99.90;;;;;;5055875;28;20429;-72
2021/07/15 03:53:35;;;;;;;12.40;6.95;;;15.50;99.90;;;;;;5055543;28;20028;-72
2021/07/15 03:56:01;;;;;;;9.60;6.40;;;15.50;99.90;;;;;;5056067;28;20021;-72
2021/07/15 03:58:28;;;;;;;9.48;6.20;;;15.50;99.90;;;;;;5055775;28;20359;-72
2021/07/15 04:01:00;;;;;;;8.95;6.68;;;15.40;99.90;;;;;;5055315;28;20056;-72
2021/07/15 04:03:29;;;;;;;13.02;7.10;;;15.40;99.90;;;;;;5054459;28;20425;-72
2021/07/15 04:05:55;;;;;;;18.27;6.80;;;15.50;99.90;;;;;;5055874;28;20024;-73
2021/07/15 04:08:23;;;;;;;12.73;6.82;;;15.50;99.90;;;;;;5055302;28;20021;-72
2021/07/15 04:10:51;;;;;;;8.77;6.15;;;15.60;99.90;;;;;;5055784;28;20482;-72
2021/07/15 04:13:18;;;;;;;10.70;6.55;;;15.70;99.90;;;;;;5055759;28;20021;-72
2021/07/15 04:16:23;;;;;;;8.02;6.28;;;15.70;99.90;;;;;;5055945;28;20021;-72
2021/07/15 04:18:54;;;;;;;16.67;6.32;;;15.70;99.90;;;;;;5054943;28;20415;-72
2021/07/15 04:21:21;;;;;;;6.72;5.50;;;15.70;99.90;;;;;;5055523;28;20121;-72
2021/07/15 04:23:50;;;;;;;6.72;5.22;;;15.70;99.90;;;;;;5054098;28;20466;-72
2021/07/15 04:26:17;;;;;;;10.02;5.65;;;15.70;99.90;;;;;;5055461;28;20029;-72
2021/07/15 04:28:44;;;;;;;11.80;5.93;;;15.70;99.90;;;;;;5055398;28;20517;-72
2021/07/15 04:31:35;;;;;;;8.82;5.78;;;15.70;99.90;;;;;;5055391;28;20021;-72
2021/07/15 04:34:02;;;;;;;8.02;5.45;;;15.70;99.90;;;;;;5054677;28;20029;-72
2021/07/15 04:36:30;;;;;;;15.70;6.07;;;15.70;99.90;;;;;;5053549;28;20083;-72
2021/07/15 04:38:57;;;;;;;9.90;5.50;;;15.80;99.90;;;;;;5053521;28;20021;-72
2021/07/15 04:41:25;;;;;;;8.32;5.35;;;15.80;99.90;;;;;;5055105;28;20029;-72
2021/07/15 04:43:52;;;;;;;9.68;5.18;;;16.00;99.90;;;;;;5053344;28;20017;-72
2021/07/15 04:46:19;;;;;;;8.40;4.90;;;16.00;99.90;;;;;;5055106;28;20108;-72
2021/07/15 04:48:46;;;;;;;13.63;6.18;;;16.00;99.90;;;;;;5055001;28;20021;-73
2021/07/15 04:51:15;;;;;;;9.07;5.30;;;16.10;99.90;;;;;;5054466;28;20388;-72
2021/07/15 04:53:42;;;;;;;9.88;5.25;;;16.10;99.90;;;;;;5054965;28;20053;-72
2021/07/15 04:56:08;;;;;;;9.38;5.10;;;16.20;99.90;;;;;;5053693;28;20033;-72
2021/07/15 04:58:35;;;;;;;9.57;5.50;;;16.30;99.90;;;;;;5053404;28;20060;-72
2021/07/15 05:01:00;;;;;;;9.05;5.03;;;16.40;99.90;;;;;;5054305;28;20094;-72
2021/07/15 05:03:32;;;;;;;9.23;5.40;;;16.50;99.90;;;;;;5054768;28;20425;-72
2021/07/15 05:05:59;;;;;;;11.52;5.13;;;16.50;99.90;;;;;;5054227;28;20356;-72
2021/07/15 05:08:25;;;;;;;10.57;4.63;;;16.70;99.90;;;;;;5054386;28;20017;-72
2021/07/15 05:10:51;;;;;;;6.32;3.90;;;17.00;99.90;;;;;;5052859;28;20452;-72
2021/07/15 05:13:17;;;;;;;11.57;4.50;;;17.10;99.90;;;;;;5054574;28;20033;-72
2021/07/15 05:15:44;;;;;;;4.55;4.13;;;17.30;99.90;;;;;;5053325;28;20048;-72
2021/07/15 05:18:09;;;;;;;7.05;3.67;;;17.60;99.90;;;;;;5053376;28;20102;-73
2021/07/15 05:20:35;;;;;;;5.22;3.22;;;18.30;99.90;;;;;;5054395;28;20401;-72
2021/07/15 05:23:00;;;;;;;7.05;3.17;;;19.20;99.90;;;;;;5054448;28;20070;-72
2021/07/15 05:25:26;;;;;;;5.00;2.80;;;19.70;99.90;;;;;;5052955;28;20025;-72
2021/07/15 05:27:51;;;;;;;6.55;2.80;;;19.70;99.90;;;;;;5054396;28;20036;-73
2021/07/15 05:30:17;;;;;;;6.03;2.67;;;19.90;99.90;;;;;;5053776;28;20021;-72
2021/07/15 05:32:43;;;;;;;6.93;2.95;;;20.20;99.90;;;;;;5053937;28;20086;-72
2021/07/15 05:35:09;;;;;;;6.10;2.75;;;20.60;99.90;;;;;;5054242;28;20352;-73
2021/07/15 05:37:34;;;;;;;11.25;3.38;;;20.40;99.90;;;;;;5053588;28;20029;-72
2021/07/15 05:40:00;;;;;;;8.05;3.03;;;19.80;99.90;;;;;;5053961;28;20040;-73
2021/07/15 05:42:26;;;;;;;11.05;2.92;;;19.60;99.90;;;;;;5053838;28;20025;-73
2021/07/15 05:44:52;;;;;;;4.57;3.17;;;19.60;99.90;;;;;;5053811;28;20032;-73
2021/07/15 05:47:18;;;;;;;4.78;2.88;;;19.40;99.90;;;;;;5053807;28;20485;-73
2021/07/15 05:49:44;;;;;;;5.50;3.17;;;19.10;99.90;;;;;;5053736;28;20032;-73
2021/07/15 05:52:11;;;;;;;5.72;3.72;;;18.90;99.90;;;;;;5053544;28;20017;-73
2021/07/15 05:54:37;;;;;;;5.47;3.75;;;18.90;99.90;;;;;;5053900;28;20025;-73
2021/07/15 05:57:04;;;;;;;6.40;4.22;;;18.70;99.90;;;;;;5053324;28;20021;-73
2021/07/15 05:59:30;;;;;;;5.35;3.60;;;18.60;99.90;;;;;;5051377;28;20051;-72
2021/07/15 06:01:55;;;;;;;8.05;3.95;;;18.50;99.90;;;;;;5052935;28;20051;-73
2021/07/15 06:04:21;;;;;;;5.22;3.90;;;18.30;99.90;;;;;;5052995;28;20024;-72
2021/07/15 06:06:46;;;;;;;11.05;4.57;;;18.30;99.90;;;;;;5035102;28;20079;-73
2021/07/15 06:09:12;;;;;;;5.70;4.13;;;18.30;99.90;;;;;;5050711;28;20036;-72
2021/07/15 06:11:37;;;;;;;9.20;4.60;;;18.30;99.90;;;;;;5050392;28;20036;-72
2021/07/15 06:14:03;;;;;;;11.25;4.13;;;18.40;99.90;;;;;;5051684;28;20475;-72
2021/07/15 06:16:28;;;;;;;6.70;4.53;;;18.20;99.90;;;;;;5053147;28;20368;-72
2021/07/15 06:18:54;;;;;;;11.00;5.22;;;18.30;99.90;;;;;;5052980;28;20072;-72
2021/07/15 06:21:19;;;;;;;8.25;4.72;;;18.20;99.90;;;;;;5052438;28;20048;-72
2021/07/15 06:23:45;;;;;;;9.95;4.68;;;18.30;99.90;;;;;;5052814;28;20033;-72
2021/07/15 06:26:11;;;;;;;10.93;5.05;;;18.40;99.90;;;;;;5052895;28;20530;-72
2021/07/15 06:28:37;;;;;;;6.07;4.30;;;18.40;99.90;;;;;;5031918;28;20026;-72
2021/07/15 06:31:03;;;;;;;6.18;3.65;;;18.40;99.90;;;;;;5033611;28;20026;-72
2021/07/15 06:33:29;;;;;;;5.35;3.72;;;18.40;99.90;;;;;;5033720;28;20037;-72
2021/07/15 06:35:54;;;;;;;9.25;3.78;;;18.40;99.90;;;;;;5031783;28;20021;-72
2021/07/15 06:38:20;;;;;;;6.10;3.42;;;18.60;99.90;;;;;;5047141;28;20029;-72
2021/07/15 06:40:51;;;;;;;9.70;3.65;;;18.60;99.90;;;;;;5052015;28;20108;-72
2021/07/15 06:43:16;;;;;;;8.45;4.00;;;18.50;99.90;;;;;;5052940;28;20040;-72
2021/07/15 06:45:42;;;;;;;5.63;4.03;;;18.40;99.90;;;;;;5056172;28;20043;-72
2021/07/15 06:48:07;;;;;;;7.38;3.70;;;18.50;99.90;;;;;;5054867;28;20490;-73
2021/07/15 06:50:33;;;;;;;5.18;3.42;;;18.60;99.90;;;;;;5056901;28;20505;-73
2021/07/15 06:53:01;;;;;;;8.88;3.85;;;18.70;99.90;;;;;;5055132;28;20103;-73
2021/07/15 06:55:27;;;;;;;9.77;3.30;;;18.80;99.90;;;;;;5049994;28;20033;-73
2021/07/15 06:57:52;;;;;;;5.72;3.45;;;18.90;99.90;;;;;;5055028;28;20035;-72
2021/07/15 07:00:18;;;;;;;5.13;3.50;;;18.90;99.90;;;;;;5055651;28;20052;-73
2021/07/15 07:02:46;;;;;;;4.05;3.60;;;19.20;99.90;;;;;;5055882;28;20036;-73
2021/07/15 07:05:13;;;;;;;7.43;4.10;;;19.20;99.90;;;;;;5056533;28;20086;-72
2021/07/15 07:07:39;;;;;;;6.72;3.65;;;19.20;99.90;;;;;;5055020;28;20017;-73
2021/07/15 07:10:07;;;;;;;8.63;4.68;;;19.40;99.90;;;;;;5056038;28;20116;-73
2021/07/15 07:12:32;;;;;;;7.55;5.20;;;19.50;99.90;;;;;;5054606;28;20032;-73
2021/07/15 07:14:58;;;;;;;8.90;5.28;;;19.50;99.90;;;;;;5055596;28;20060;-73
2021/07/15 07:17:24;;;;;;;8.48;4.97;;;19.60;99.90;;;;;;5054564;28;20036;-73
2021/07/15 07:19:49;;;;;;;10.48;5.93;;;19.60;99.90;;;;;;5055887;28;20033;-73
2021/07/15 07:22:15;;;;;;;9.82;5.15;;;19.60;99.90;;;;;;5054468;28;20025;-73
2021/07/15 07:24:40;;;;;;;7.65;5.25;;;19.60;99.90;;;;;;5054343;28;20028;-73
2021/07/15 07:27:06;;;;;;;9.40;5.20;;;19.70;99.90;;;;;;5055140;28;20497;-73
2021/07/15 07:29:32;;;;;;;9.10;4.82;;;19.70;99.90;;;;;;5055423;28;20033;-73
2021/07/15 07:31:57;;;;;;;9.25;5.13;;;20.00;99.90;;;;;;5055697;28;20528;-73
2021/07/15 07:34:23;;;;;;;12.63;5.60;;;20.10;99.90;;;;;;5055497;28;20029;-73
2021/07/15 07:36:48;;;;;;;5.15;4.63;;;20.10;99.90;;;;;;5055496;28;20557;-73
2021/07/15 07:39:15;;;;;;;8.85;5.15;;;20.30;99.90;;;;;;5055264;28;20021;-73
2021/07/15 07:41:40;;;;;;;9.32;5.20;;;20.40;99.90;;;;;;5055506;28;20025;-72
2021/07/15 07:44:06;;;;;;;6.45;4.78;;;20.50;99.90;;;;;;5054789;28;20101;-73
2021/07/15 07:46:32;;;;;;;8.38;5.18;;;20.50;99.90;;;;;;5055315;28;20057;-73
2021/07/15 07:48:58;;;;;;;7.63;5.22;;;20.50;99.90;;;;;;5054998;28;20017;-73
2021/07/15 07:51:23;;;;;;;6.82;5.15;;;20.40;99.90;;;;;;5054495;28;20021;-73
2021/07/15 07:53:50;;;;;;;10.35;5.35;;;20.50;99.90;;;;;;5053974;28;20458;-73
2021/07/15 07:56:16;;;;;;;7.63;6.78;;;20.50;99.90;;;;;;5054695;28;20120;-73
2021/07/15 07:58:42;;;;;;;10.13;6.38;;;20.60;99.90;;;;;;5054523;28;20016;-73
2021/07/15 08:01:07;;;;;;;8.65;5.30;;;20.50;99.90;;;;;;5053181;28;20384;-73
2021/07/15 08:03:33;;;;;;;6.38;5.43;;;20.80;99.90;;;;;;5054737;28;20110;-73
2021/07/15 08:05:58;;;;;;;5.95;5.32;;;21.10;99.90;;;;;;5054497;28;20104;-73
2021/07/15 08:08:26;;;;;;;9.60;5.65;;;21.20;99.90;;;;;;5055087;28;20025;-73
2021/07/15 08:10:52;;;;;;;8.00;5.80;;;21.60;99.90;;;;;;5053433;28;20471;-73
2021/07/15 08:13:17;;;;;;;8.70;7.63;;;21.70;99.90;;;;;;5054565;28;20032;-73
2021/07/15 08:15:43;;;;;;;8.43;7.50;;;21.50;99.90;;;;;;5054946;28;20111;-73
2021/07/15 08:18:08;;;;;;;8.77;7.97;;;21.20;99.90;;;;;;5054805;28;20025;-73
2021/07/15 08:20:34;;;;;;;12.02;8.93;;;21.70;99.90;;;;;;5054083;28;20025;-73
2021/07/15 08:23:00;;;;;;;12.43;11.07;;;21.80;99.90;;;;;;5053876;28;20063;-73
2021/07/15 08:25:26;;;;;;;14.00;12.55;;;22.00;99.90;;;;;;5054263;28;20059;-73
2021/07/15 08:27:52;;;;;;;11.65;10.45;;;22.00;99.90;;;;;;5052844;28;20056;-74
2021/07/15 08:30:19;;;;;;;11.77;10.68;;;21.90;99.90;;;;;;5054739;28;20028;-74
2021/07/15 08:32:44;;;;;;;13.55;10.80;;;21.80;99.90;;;;;;5053076;28;20056;-74
2021/07/15 08:35:11;;;;;;;9.40;8.30;;;21.80;99.90;;;;;;5052025;28;20048;-73
2021/07/15 08:37:36;;;;;;;8.32;7.25;;;21.60;99.90;;;;;;5053737;28;20071;-74
2021/07/15 08:40:05;;;;;;;8.45;7.45;;;21.50;99.90;;;;;;5053564;28;20037;-74
2021/07/15 08:42:31;;;;;;;7.57;6.72;;;21.50;99.90;;;;;;5053230;28;20032;-74
2021/07/15 08:45:00;;;;;;;6.45;5.45;;;21.90;99.90;;;;;;5053391;28;20025;-74
2021/07/15 08:47:27;;;;;;;6.85;4.50;;;22.70;99.90;;;;;;5053856;28;20521;-74
2021/07/15 08:49:53;;;;;;;5.45;4.75;;;23.50;99.90;;;;;;5053405;28;20030;-74
2021/07/15 08:52:19;;;;;;;6.07;5.18;;;23.70;99.90;;;;;;5053494;28;20047;-74
2021/07/15 08:54:59;;;;;;;7.95;5.78;;;23.90;99.90;;;;;;5053370;28;20021;-74
2021/07/15 08:57:24;;;;;;;6.40;4.85;;;23.90;99.90;;;;;;5043935;28;20036;-75
2021/07/15 08:59:50;;;;;;;6.35;5.47;;;23.40;99.90;;;;;;5053555;28;20033;-74
2021/07/15 09:02:19;;;;;;;7.05;6.18;;;23.30;99.90;;;;;;5053431;28;20052;-74
2021/07/15 09:04:45;;;;;;;6.70;5.38;;;23.10;99.90;;;;;;5053726;28;20104;-74
2021/07/15 09:07:10;;;;;;;6.05;4.07;;;22.90;99.90;;;;;;5051762;28;20497;-74
2021/07/15 09:09:36;;;;;;;7.35;4.43;;;22.80;99.90;;;;;;5053795;28;20053;-75
2021/07/15 09:12:02;;;;;;;9.55;4.28;;;23.10;99.90;;;;;;5052010;28;20479;-74
2021/07/15 09:14:27;;;;;;;6.05;4.00;;;23.30;99.90;;;;;;5053645;28;20178;-74
2021/07/15 09:16:56;;;;;;;7.43;3.97;;;23.70;99.90;;;;;;5052890;28;20158;-74
2021/07/15 09:19:24;;;;;;;3.97;3.58;;;23.90;99.90;;;;;;5052630;28;20032;-74
2021/07/15 09:21:50;;;;;;;7.18;4.55;;;24.10;99.90;;;;;;5052624;28;20136;-75
2021/07/15 09:24:33;;;;;;;4.15;3.80;;;24.30;99.90;;;;;;5052917;28;20064;-74
2021/07/15 09:27:09;;;;;;;4.53;3.67;;;24.30;99.90;;;;;;5053493;28;20085;-74
2021/07/15 09:29:35;;;;;;;3.38;3.08;;;24.70;99.90;;;;;;5052853;28;20021;-72
2021/07/15 09:32:01;;;;;;;2.90;2.70;;;25.10;99.90;;;;;;5052729;28;20032;-75
2021/07/15 09:34:29;;;;;;;3.95;3.38;;;24.70;99.90;;;;;;5052389;28;20032;-75
2021/07/15 09:36:56;;;;;;;4.65;2.90;;;24.50;99.90;;;;;;5053239;28;20060;-74
2021/07/15 09:39:27;;;;;;;5.53;3.38;;;24.70;99.90;;;;;;5052785;28;20390;-74
2021/07/15 09:42:18;;;;;;;4.38;3.47;;;24.70;99.90;;;;;;5053023;28;20074;-74
2021/07/15 09:44:48;;;;;;;4.63;3.10;;;24.60;99.90;;;;;;5052488;28;20052;-75
2021/07/15 09:47:39;;;;;;;3.17;2.83;;;26.00;99.90;;;;;;5051738;28;20034;-74
2021/07/15 09:50:26;;;;;;;2.90;2.70;;;26.70;99.90;;;;;;5050886;28;20029;-75
2021/07/15 09:52:53;;;;;;;2.70;2.50;;;28.10;99.90;;;;;;5050646;28;20032;-75
2021/07/15 09:55:26;;;;;;;2.95;2.50;;;28.70;99.90;;;;;;5052461;28;20060;-75
2021/07/15 09:58:09;;;;;;;3.22;2.10;;;28.40;99.90;;;;;;5051694;28;20433;-75
2021/07/15 10:00:39;;;;;;;;;;;29.10;99.90;;;;;;5053116;28;20079;-73
2021/07/15 10:03:06;;;;;;;2.00;1.90;;;29.50;99.90;;;;;;5051914;28;19913;-73
2021/07/15 10:05:32;;;;;;;3.05;2.22;;;29.80;99.90;;;;;;5051889;28;20027;-73
2021/07/15 10:08:02;;;;;;;2.10;1.90;;;30.20;99.90;;;;;;5052323;28;20072;-75
2021/07/15 10:10:28;;;;;;;2.08;1.98;;;29.70;99.90;;;;;;5050042;28;20025;-75
2021/07/15 10:12:55;;;;;;;3.78;2.08;;;29.60;99.90;;;;;;5051612;28;20057;-75
2021/07/15 10:15:20;;;;;;;5.30;2.10;;;30.00;99.90;;;;;;5052525;28;20040;-75
2021/07/15 10:17:46;;;;;;;2.90;1.80;;;30.30;99.90;;;;;;5051318;28;20029;-75
2021/07/15 10:20:16;;;;;;;2.67;2.47;;;29.90;99.90;;;;;;5055652;28;20029;-75
2021/07/15 10:22:42;;;;;;;2.60;2.40;;;30.20;99.90;;;;;;5054713;28;20036;-75
2021/07/15 10:25:10;;;;;;;2.42;2.22;;;29.70;99.90;;;;;;5054399;28;20387;-75
2021/07/15 10:27:38;;;;;;;3.00;2.35;;;28.30;99.90;;;;;;5055102;28;20021;-75
2021/07/15 10:30:06;;;;;;;4.53;2.03;;;26.90;99.90;;;;;;5055209;28;20470;-76
2021/07/15 10:32:34;;;;;;;2.35;2.15;;;26.50;99.90;;;;;;5055492;28;20013;-75
2021/07/15 10:35:00;;;;;;;5.10;2.70;;;26.10;99.90;;;;;;5054759;28;20108;-75
2021/07/15 10:37:25;;;;;;;2.40;2.20;;;26.00;99.90;;;;;;5054701;28;20128;-75
2021/07/15 10:39:51;;;;;;;2.78;2.15;;;25.40;99.90;;;;;;5054841;28;20029;-75
2021/07/15 10:42:17;;;;;;;2.97;2.45;;;25.30;99.90;;;;;;5053855;28;20047;-75
2021/07/15 10:44:45;;;;;;;2.80;2.60;;;24.80;99.90;;;;;;5053808;28;20470;-74
2021/07/15 10:47:12;;;;;;;3.10;2.90;;;24.60;99.90;;;;;;5055477;28;20027;-75
2021/07/15 10:49:38;;;;;;;3.13;2.63;;;24.50;99.90;;;;;;5056216;28;20025;-74
2021/07/15 10:52:06;;;;;;;3.50;2.95;;;24.40;99.90;;;;;;5055962;28;20024;-75
2021/07/15 10:54:33;;;;;;;3.22;2.85;;;24.50;99.90;;;;;;5053813;28;20040;-74
2021/07/15 10:56:59;;;;;;;4.80;2.60;;;24.00;99.90;;;;;;5055929;28;20029;-75
2021/07/15 10:59:28;;;;;;;2.67;2.47;;;24.00;99.90;;;;;;5054946;28;20036;-75
2021/07/15 11:01:56;;;;;;;3.70;2.80;;;23.90;99.90;;;;;;5054696;28;20033;-75
2021/07/15 11:04:34;;;;;;;2.80;2.58;;;23.90;99.90;;;;;;5054724;28;20052;-74
2021/07/15 11:07:19;;;;;;;3.90;2.53;;;23.70;99.90;;;;;;5055353;28;20547;-74
2021/07/15 11:09:45;;;;;;;4.55;2.75;;;23.50;99.90;;;;;;5036170;28;20387;-74
2021/07/15 11:12:32;;;;;;;3.17;2.92;;;23.50;99.90;;;;;;5035660;28;20026;-74
2021/07/15 11:15:06;;;;;;;2.88;2.50;;;23.50;99.90;;;;;;5034417;28;20482;-74
2021/07/15 11:17:39;;;;;;;3.00;2.35;;;23.50;99.90;;;;;;5053072;28;20377;-74
2021/07/15 11:20:09;;;;;;;;;;;23.50;99.90;;;;;;5055482;28;20032;-73
2021/07/15 11:22:52;;;;;;;2.60;2.40;;;23.30;99.90;;;;;;5055149;28;20015;-73
2021/07/15 11:25:35;;;;;;;3.88;2.58;;;23.40;99.90;;;;;;5054796;28;20060;-73
2021/07/15 11:28:16;;;;;;;3.35;2.92;;;23.50;99.90;;;;;;5055324;28;20021;-73
2021/07/15 11:30:44;;;;;;;3.45;2.50;;;23.40;99.90;;;;;;5055086;28;20104;-73
2021/07/15 11:36:09;;;;;;;2.97;2.78;;;23.60;99.90;;;;;;5092460;28;20458;-73
2021/07/15 11:38:59;;;;;;;3.40;3.10;;;23.40;99.90;;;;;;5084100;28;20032;-73
2021/07/15 11:41:43;;;;;;;3.22;2.58;;;23.60;99.90;;;;;;5071007;28;20024;-73
2021/07/15 11:44:09;;;;;;;3.03;2.72;;;23.90;99.90;;;;;;5072672;28;20052;-73
2021/07/15 11:46:36;;;;;;;3.17;2.88;;;23.90;99.90;;;;;;5090746;28;20028;-73
2021/07/15 11:54:44;;;;;;;3.40;3.10;;;24.50;99.90;;;;;;5152167;27;20343;-73
2021/07/15 11:59:51;;;;;;;4.45;3.35;;;25.00;99.90;;;;;;5070005;28;20423;-72
2021/07/15 12:02:29;;;;;;;3.80;3.50;;;25.20;99.90;;;;;;5048973;28;20082;-72
2021/07/15 12:10:35;;;;;;;3.58;3.38;;;24.60;99.90;;;;;;5111192;27;20306;-73
2021/07/15 12:13:05;;;;;;;4.13;3.80;;;24.50;99.90;;;;;;5090696;28;20031;-73
2021/07/15 12:15:32;;;;;;;5.25;3.60;;;24.40;99.90;;;;;;5088654;28;20100;-73
2021/07/15 12:18:00;;;;;;;3.47;3.17;;;24.70;99.90;;;;;;5087660;28;20070;-73
2021/07/15 12:20:40;;;;;;;3.70;3.40;;;25.10;99.90;;;;;;5073316;28;20054;-73
2021/07/15 12:23:12;;;;;;;3.28;2.92;;;25.40;99.90;;;;;;5088334;28;20016;-73
2021/07/15 12:25:38;;;;;;;3.30;3.00;;;25.60;99.90;;;;;;5090681;28;20110;-73
2021/07/15 12:28:08;;;;;;;4.03;3.65;;;25.50;99.90;;;;;;5088464;28;20270;-73
2021/07/15 12:30:41;;;;;;;4.38;3.47;;;25.50;99.90;;;;;;5089961;28;20016;-73
2021/07/15 12:33:06;;;;;;;8.85;3.08;;;25.60;99.90;;;;;;5089268;28;20497;-73
2021/07/15 12:35:34;;;;;;;2.90;2.70;;;26.10;99.90;;;;;;5092693;28;20021;-73
2021/07/15 12:38:19;;;;;;;3.88;3.22;;;25.70;99.90;;;;;;5106063;28;20024;-73
2021/07/15 12:40:46;;;;;;;3.00;2.80;;;25.30;99.90;;;;;;5107823;28;20028;-73
2021/07/15 12:43:14;;;;;;;3.10;2.80;;;25.30;99.90;;;;;;5092482;28;20068;-73
2021/07/15 12:45:40;;;;;;;3.80;3.00;;;25.20;99.90;;;;;;5092028;28;20038;-73
2021/07/15 12:48:07;;;;;;;3.55;3.20;;;25.20;99.90;;;;;;5091090;28;20032;-73
2021/07/15 12:50:33;;;;;;;4.40;3.30;;;24.80;99.90;;;;;;5095256;28;20016;-73
2021/07/15 12:53:18;;;;;;;3.42;3.13;;;24.80;99.90;;;;;;5090405;28;20030;-73
2021/07/15 12:55:44;;;;;;;3.92;3.20;;;24.70;99.90;;;;;;5093911;28;20020;-73
2021/07/15 12:58:11;;;;;;;4.78;3.20;;;24.80;99.90;;;;;;5091973;28;21214;-73
2021/07/15 13:00:38;;;;;;;3.30;3.00;;;25.20;99.90;;;;;;5089794;28;20016;-73
2021/07/15 13:03:04;;;;;;;3.92;3.35;;;25.10;99.90;;;;;;5088627;28;20024;-73
2021/07/15 13:05:30;;;;;;;3.53;2.95;;;24.90;99.90;;;;;;5088982;28;20025;-73
2021/07/15 13:07:57;;;;;;;4.32;2.92;;;24.80;99.90;;;;;;5092309;28;20110;-73